sensor_id;sensor_type;location;lat;lon;timestamp;temperature;humidity
11083;DHT22;5595;50.186;8.468;2023-04-25T00:02:25;8.20;99.90
11083;DHT22;5595;50.186;8.468;2023-04-25T00:04:51;8.20;99.90
11083;DHT22;5595;50.186;8.468;2023-04-25T00:07:18;8.20;99.90
11083;DHT22;5595;50.186;8.468;2023-04-25T00:09:45;8.20;99.90
11083;DHT22;5595;50.186;8.468;2023-04-25T00:12:12;8.30;99.90
11083;DHT22;5595;50.186;8.468;2023-04-25T00:14:39;8.30;99.90
11083;DHT22;5595;50.186;8.468;2023-04-25T00:17:06;8.30;99.90
11083;DHT22;5595;50.186;8.468;2023-04-25T00:19:34;8.30;99.90
11083;DHT22;5595;50.186;8.468;2023-04-25T00:22:03;8.40;99.90
11083;DHT22;5595;50.186;8.468;2023-04-25T00:24:31;8.30;99.90
11083;DHT22;5595;50.186;8.468;2023-04-25T00:26:58;8.20;99.90
11083;DHT22;5595;50.186;8.468;2023-04-25T00:29:24;8.20;99.90
11083;DHT22;5595;50.186;8.468;2023-04-25T00:31:52;8.20;99.90
11083;DHT22;5595;50.186;8.468;2023-04-25T00:34:19;8.30;99.90
11083;DHT22;5595;50.186;8.468;2023-04-25T00:36:47;8.20;99.90
11083;DHT22;5595;50.186;8.468;2023-04-25T00:39:14;8.20;99.90
11083;DHT22;5595;50.186;8.468;2023-04-25T00:41:41;8.20;99.90
11083;DHT22;5595;50.186;8.468;2023-04-25T00:44:09;8.10;99.90
11083;DHT22;5595;50.186;8.468;2023-04-25T00:46:37;8.20;99.90
11083;DHT22;5595;50.186;8.468;2023-04-25T00:49:05;8.10;99.90
11083;DHT22;5595;50.186;8.468;2023-04-25T00:51:33;7.90;99.90
11083;DHT22;5595;50.186;8.468;2023-04-25T00:54:01;7.90;99.90
11083;DHT22;5595;50.186;8.468;2023-04-25T00:56:29;7.90;99.90
11083;DHT22;5595;50.186;8.468;2023-04-25T00:58:56;8.00;99.90
11083;DHT22;5595;50.186;8.468;2023-04-25T01:01:23;8.00;99.90
11083;DHT22;5595;50.186;8.468;2023-04-25T01:03:50;7.70;99.90
11083;DHT22;5595;50.186;8.468;2023-04-25T01:06:18;7.90;99.90
11083;DHT22;5595;50.186;8.468;2023-04-25T01:08:45;7.90;99.90
11083;DHT22;5595;50.186;8.468;2023-04-25T01:11:13;7.90;99.90
11083;DHT22;5595;50.186;8.468;2023-04-25T01:13:40;7.90;99.90
11083;DHT22;5595;50.186;8.468;2023-04-25T01:16:07;8.00;99.90
11083;DHT22;5595;50.186;8.468;2023-04-25T01:18:34;8.00;99.90
11083;DHT22;5595;50.186;8.468;2023-04-25T01:21:09;7.90;99.90
11083;DHT22;5595;50.186;8.468;2023-04-25T01:23:36;7.90;99.90
11083;DHT22;5595;50.186;8.468;2023-04-25T01:26:04;7.80;99.90
11083;DHT22;5595;50.186;8.468;2023-04-25T01:28:33;7.70;99.90
11083;DHT22;5595;50.186;8.468;2023-04-25T01:31:00;7.70;99.90
11083;DHT22;5595;50.186;8.468;2023-04-25T01:33:27;7.70;99.90
11083;DHT22;5595;50.186;8.468;2023-04-25T01:35:54;7.80;99.90
11083;DHT22;5595;50.186;8.468;2023-04-25T01:38:22;7.80;99.90
11083;DHT22;5595;50.186;8.468;2023-04-25T01:40:51;7.80;99.90
11083;DHT22;5595;50.186;8.468;2023-04-25T01:43:18;7.90;99.90
11083;DHT22;5595;50.186;8.468;2023-04-25T01:45:46;7.90;99.90
11083;DHT22;5595;50.186;8.468;2023-04-25T01:48:14;7.80;99.90
11083;DHT22;5595;50.186;8.468;2023-04-25T01:50:41;7.80;99.90
11083;DHT22;5595;50.186;8.468;2023-04-25T01:53:09;7.80;99.90
11083;DHT22;5595;50.186;8.468;2023-04-25T01:55:37;8.00;99.90
11083;DHT22;5595;50.186;8.468;2023-04-25T01:58:06;7.80;99.90
11083;DHT22;5595;50.186;8.468;2023-04-25T02:00:35;7.90;99.90
11083;DHT22;5595;50.186;8.468;2023-04-25T02:03:03;7.90;99.90
11083;DHT22;5595;50.186;8.468;2023-04-25T02:05:34;7.70;99.90
11083;DHT22;5595;50.186;8.468;2023-04-25T02:08:02;7.80;99.90
11083;DHT22;5595;50.186;8.468;2023-04-25T02:10:29;7.80;99.90
11083;DHT22;5595;50.186;8.468;2023-04-25T02:12:58;7.70;99.90
11083;DHT22;5595;50.186;8.468;2023-04-25T02:15:25;7.70;99.90
11083;DHT22;5595;50.186;8.468;2023-04-25T02:17:52;7.70;99.90
11083;DHT22;5595;50.186;8.468;2023-04-25T02:20:21;7.80;99.90
11083;DHT22;5595;50.186;8.468;2023-04-25T02:22:48;7.70;99.90
11083;DHT22;5595;50.186;8.468;2023-04-25T02:25:15;7.70;99.90
11083;DHT22;5595;50.186;8.468;2023-04-25T02:27:42;7.50;99.90
11083;DHT22;5595;50.186;8.468;2023-04-25T02:30:11;7.50;99.90
11083;DHT22;5595;50.186;8.468;2023-04-25T02:32:38;7.40;99.90
11083;DHT22;5595;50.186;8.468;2023-04-25T02:35:06;7.30;99.90
11083;DHT22;5595;50.186;8.468;2023-04-25T02:37:34;7.30;99.90
11083;DHT22;5595;50.186;8.468;2023-04-25T02:40:01;7.20;99.90
11083;DHT22;5595;50.186;8.468;2023-04-25T02:42:30;7.10;99.90
11083;DHT22;5595;50.186;8.468;2023-04-25T02:44:57;7.10;99.90
11083;DHT22;5595;50.186;8.468;2023-04-25T02:47:25;7.10;99.90
11083;DHT22;5595;50.186;8.468;2023-04-25T02:49:52;7.00;99.90
11083;DHT22;5595;50.186;8.468;2023-04-25T02:52:19;7.00;99.90
11083;DHT22;5595;50.186;8.468;2023-04-25T02:54:46;7.00;99.90
11083;DHT22;5595;50.186;8.468;2023-04-25T02:57:13;7.00;99.90
11083;DHT22;5595;50.186;8.468;2023-04-25T02:59:40;7.10;99.90
11083;DHT22;5595;50.186;8.468;2023-04-25T03:02:11;7.00;99.90
11083;DHT22;5595;50.186;8.468;2023-04-25T03:04:39;6.90;99.90
11083;DHT22;5595;50.186;8.468;2023-04-25T03:07:06;7.40;99.90
11083;DHT22;5595;50.186;8.468;2023-04-25T03:09:33;6.90;99.90
11083;DHT22;5595;50.186;8.468;2023-04-25T03:12:00;7.00;99.90
11083;DHT22;5595;50.186;8.468;2023-04-25T03:14:27;6.90;99.90
11083;DHT22;5595;50.186;8.468;2023-04-25T03:16:54;6.80;99.90
11083;DHT22;5595;50.186;8.468;2023-04-25T03:19:20;6.90;99.90
11083;DHT22;5595;50.186;8.468;2023-04-25T03:21:49;6.80;99.90
11083;DHT22;5595;50.186;8.468;2023-04-25T03:24:16;7.00;99.90
11083;DHT22;5595;50.186;8.468;2023-04-25T03:26:42;6.90;99.90
11083;DHT22;5595;50.186;8.468;2023-04-25T03:29:09;6.80;99.90
11083;DHT22;5595;50.186;8.468;2023-04-25T03:31:37;6.60;99.90
11083;DHT22;5595;50.186;8.468;2023-04-25T03:34:04;6.50;99.90
11083;DHT22;5595;50.186;8.468;2023-04-25T03:36:31;6.50;99.90
11083;DHT22;5595;50.186;8.468;2023-04-25T03:38:59;6.40;99.90
11083;DHT22;5595;50.186;8.468;2023-04-25T03:41:26;6.50;99.90
11083;DHT22;5595;50.186;8.468;2023-04-25T03:43:53;6.40;99.90
11083;DHT22;5595;50.186;8.468;2023-04-25T03:46:20;6.20;99.90
11083;DHT22;5595;50.186;8.468;2023-04-25T03:48:47;6.10;99.90
11083;DHT22;5595;50.186;8.468;2023-04-25T03:51:13;6.10;99.90
11083;DHT22;5595;50.186;8.468;2023-04-25T03:53:41;5.90;99.90
11083;DHT22;5595;50.186;8.468;2023-04-25T03:56:09;5.90;99.90
11083;DHT22;5595;50.186;8.468;2023-04-25T03:58:36;5.80;99.90
11083;DHT22;5595;50.186;8.468;2023-04-25T04:01:03;5.70;99.90
11083;DHT22;5595;50.186;8.468;2023-04-25T04:03:33;5.70;99.90
11083;DHT22;5595;50.186;8.468;2023-04-25T04:06:00;5.60;99.90
11083;DHT22;5595;50.186;8.468;2023-04-25T04:08:28;5.60;99.90
11083;DHT22;5595;50.186;8.468;2023-04-25T04:10:55;5.60;99.90
11083;DHT22;5595;50.186;8.468;2023-04-25T04:13:23;5.50;99.90
11083;DHT22;5595;50.186;8.468;2023-04-25T04:15:50;5.60;99.90
11083;DHT22;5595;50.186;8.468;2023-04-25T04:18:17;5.50;99.90
11083;DHT22;5595;50.186;8.468;2023-04-25T04:20:44;5.50;99.90
11083;DHT22;5595;50.186;8.468;2023-04-25T04:23:11;5.50;99.90
11083;DHT22;5595;50.186;8.468;2023-04-25T04:25:38;5.70;99.90
11083;DHT22;5595;50.186;8.468;2023-04-25T04:28:07;5.70;99.90
11083;DHT22;5595;50.186;8.468;2023-04-25T04:30:35;5.90;99.90
11083;DHT22;5595;50.186;8.468;2023-04-25T04:33:03;5.70;99.90
11083;DHT22;5595;50.186;8.468;2023-04-25T04:35:30;5.70;99.90
11083;DHT22;5595;50.186;8.468;2023-04-25T04:37:57;5.90;99.90
11083;DHT22;5595;50.186;8.468;2023-04-25T04:40:27;5.80;99.90
11083;DHT22;5595;50.186;8.468;2023-04-25T04:42:54;5.90;99.90
11083;DHT22;5595;50.186;8.468;2023-04-25T04:45:22;5.90;99.90
11083;DHT22;5595;50.186;8.468;2023-04-25T04:47:50;6.00;99.90
11083;DHT22;5595;50.186;8.468;2023-04-25T04:50:17;6.10;99.90
11083;DHT22;5595;50.186;8.468;2023-04-25T04:52:44;6.00;99.90
11083;DHT22;5595;50.186;8.468;2023-04-25T04:55:11;6.20;99.90
11083;DHT22;5595;50.186;8.468;2023-04-25T04:57:38;6.30;99.90
11083;DHT22;5595;50.186;8.468;2023-04-25T05:00:06;6.30;99.90
11083;DHT22;5595;50.186;8.468;2023-04-25T05:02:36;6.20;99.90
11083;DHT22;5595;50.186;8.468;2023-04-25T05:05:05;6.20;99.90
11083;DHT22;5595;50.186;8.468;2023-04-25T05:07:32;6.20;99.90
11083;DHT22;5595;50.186;8.468;2023-04-25T05:09:59;6.30;99.90
11083;DHT22;5595;50.186;8.468;2023-04-25T05:12:26;6.10;99.90
11083;DHT22;5595;50.186;8.468;2023-04-25T05:14:53;6.10;99.90
11083;DHT22;5595;50.186;8.468;2023-04-25T05:17:20;6.10;99.90
11083;DHT22;5595;50.186;8.468;2023-04-25T05:19:46;6.00;99.90
11083;DHT22;5595;50.186;8.468;2023-04-25T05:22:15;6.10;99.90
11083;DHT22;5595;50.186;8.468;2023-04-25T05:24:42;6.20;99.90
11083;DHT22;5595;50.186;8.468;2023-04-25T05:27:08;6.10;99.90
11083;DHT22;5595;50.186;8.468;2023-04-25T05:29:35;6.20;99.90
11083;DHT22;5595;50.186;8.468;2023-04-25T05:32:02;6.30;99.90
11083;DHT22;5595;50.186;8.468;2023-04-25T05:34:29;6.50;99.90
11083;DHT22;5595;50.186;8.468;2023-04-25T05:36:56;6.50;99.90
11083;DHT22;5595;50.186;8.468;2023-04-25T05:39:24;6.50;99.90
11083;DHT22;5595;50.186;8.468;2023-04-25T05:41:51;6.50;99.90
11083;DHT22;5595;50.186;8.468;2023-04-25T05:44:19;6.50;99.90
11083;DHT22;5595;50.186;8.468;2023-04-25T05:46:46;6.60;99.90
11083;DHT22;5595;50.186;8.468;2023-04-25T05:49:13;6.60;99.90
11083;DHT22;5595;50.186;8.468;2023-04-25T05:51:40;6.70;99.90
11083;DHT22;5595;50.186;8.468;2023-04-25T05:54:08;6.70;99.90
11083;DHT22;5595;50.186;8.468;2023-04-25T05:56:37;6.60;99.90
11083;DHT22;5595;50.186;8.468;2023-04-25T05:59:04;6.60;99.90
11083;DHT22;5595;50.186;8.468;2023-04-25T06:01:31;6.60;99.90
11083;DHT22;5595;50.186;8.468;2023-04-25T06:03:58;6.50;99.90
11083;DHT22;5595;50.186;8.468;2023-04-25T06:06:25;6.80;99.90
11083;DHT22;5595;50.186;8.468;2023-04-25T06:08:53;6.80;99.90
11083;DHT22;5595;50.186;8.468;2023-04-25T06:11:20;6.90;99.90
11083;DHT22;5595;50.186;8.468;2023-04-25T06:13:48;6.90;99.90
11083;DHT22;5595;50.186;8.468;2023-04-25T06:16:15;7.40;99.90
11083;DHT22;5595;50.186;8.468;2023-04-25T06:18:42;7.40;99.90
11083;DHT22;5595;50.186;8.468;2023-04-25T06:21:09;7.60;99.90
11083;DHT22;5595;50.186;8.468;2023-04-25T06:23:35;7.80;99.90
11083;DHT22;5595;50.186;8.468;2023-04-25T06:26:02;7.90;99.90
11083;DHT22;5595;50.186;8.468;2023-04-25T06:28:29;8.00;99.90
11083;DHT22;5595;50.186;8.468;2023-04-25T06:30:57;8.00;99.90
11083;DHT22;5595;50.186;8.468;2023-04-25T06:33:24;7.90;99.90
11083;DHT22;5595;50.186;8.468;2023-04-25T06:35:52;7.90;99.90
11083;DHT22;5595;50.186;8.468;2023-04-25T06:38:19;7.70;99.90
11083;DHT22;5595;50.186;8.468;2023-04-25T06:40:46;7.60;99.90
11083;DHT22;5595;50.186;8.468;2023-04-25T06:43:12;7.70;99.90
11083;DHT22;5595;50.186;8.468;2023-04-25T06:45:39;7.80;99.90
11083;DHT22;5595;50.186;8.468;2023-04-25T06:48:09;7.90;99.90
11083;DHT22;5595;50.186;8.468;2023-04-25T06:50:36;8.00;99.90
11083;DHT22;5595;50.186;8.468;2023-04-25T06:53:02;8.40;99.90
11083;DHT22;5595;50.186;8.468;2023-04-25T06:55:29;8.90;99.90
11083;DHT22;5595;50.186;8.468;2023-04-25T06:57:56;9.40;99.90
11083;DHT22;5595;50.186;8.468;2023-04-25T07:00:23;9.70;99.90
11083;DHT22;5595;50.186;8.468;2023-04-25T07:02:50;10.00;99.90
11083;DHT22;5595;50.186;8.468;2023-04-25T07:05:18;10.20;99.90
11083;DHT22;5595;50.186;8.468;2023-04-25T07:07:45;10.10;99.90
11083;DHT22;5595;50.186;8.468;2023-04-25T07:10:12;10.00;99.90
11083;DHT22;5595;50.186;8.468;2023-04-25T07:12:40;9.70;99.90
11083;DHT22;5595;50.186;8.468;2023-04-25T07:15:08;9.60;99.90
11083;DHT22;5595;50.186;8.468;2023-04-25T07:17:36;9.50;99.90
11083;DHT22;5595;50.186;8.468;2023-04-25T07:20:03;9.50;99.90
11083;DHT22;5595;50.186;8.468;2023-04-25T07:22:32;9.70;99.90
11083;DHT22;5595;50.186;8.468;2023-04-25T07:24:59;9.70;99.90
11083;DHT22;5595;50.186;8.468;2023-04-25T07:27:26;9.70;99.90
11083;DHT22;5595;50.186;8.468;2023-04-25T07:29:53;9.70;99.90
11083;DHT22;5595;50.186;8.468;2023-04-25T07:32:20;9.90;99.90
11083;DHT22;5595;50.186;8.468;2023-04-25T07:34:47;10.20;99.90
11083;DHT22;5595;50.186;8.468;2023-04-25T07:37:14;10.60;99.90
11083;DHT22;5595;50.186;8.468;2023-04-25T07:39:42;10.60;99.90
11083;DHT22;5595;50.186;8.468;2023-04-25T07:42:11;10.90;99.90
11083;DHT22;5595;50.186;8.468;2023-04-25T07:44:38;10.90;99.90
11083;DHT22;5595;50.186;8.468;2023-04-25T07:47:05;10.90;99.90
11083;DHT22;5595;50.186;8.468;2023-04-25T07:49:33;10.70;99.90
11083;DHT22;5595;50.186;8.468;2023-04-25T07:52:00;10.50;99.90
11083;DHT22;5595;50.186;8.468;2023-04-25T07:54:27;10.40;99.90
11083;DHT22;5595;50.186;8.468;2023-04-25T07:57:04;10.50;99.90
11083;DHT22;5595;50.186;8.468;2023-04-25T07:59:31;10.50;99.90
11083;DHT22;5595;50.186;8.468;2023-04-25T08:01:58;10.50;99.90
11083;DHT22;5595;50.186;8.468;2023-04-25T08:04:25;10.30;99.90
11083;DHT22;5595;50.186;8.468;2023-04-25T08:06:52;10.30;99.90
11083;DHT22;5595;50.186;8.468;2023-04-25T08:09:20;10.50;99.90
11083;DHT22;5595;50.186;8.468;2023-04-25T08:11:47;10.70;99.90
11083;DHT22;5595;50.186;8.468;2023-04-25T08:14:16;10.90;99.90
11083;DHT22;5595;50.186;8.468;2023-04-25T08:16:43;10.90;99.90
11083;DHT22;5595;50.186;8.468;2023-04-25T08:19:09;10.90;99.90
11083;DHT22;5595;50.186;8.468;2023-04-25T08:21:36;10.70;99.90
11083;DHT22;5595;50.186;8.468;2023-04-25T08:24:04;10.60;99.90
11083;DHT22;5595;50.186;8.468;2023-04-25T08:26:31;10.70;99.90
11083;DHT22;5595;50.186;8.468;2023-04-25T08:28:58;10.70;99.90
11083;DHT22;5595;50.186;8.468;2023-04-25T08:31:26;10.90;99.90
11083;DHT22;5595;50.186;8.468;2023-04-25T08:33:53;10.80;99.90
11083;DHT22;5595;50.186;8.468;2023-04-25T08:36:20;11.00;99.90
11083;DHT22;5595;50.186;8.468;2023-04-25T08:38:47;11.10;99.90
11083;DHT22;5595;50.186;8.468;2023-04-25T08:41:15;11.20;99.90
11083;DHT22;5595;50.186;8.468;2023-04-25T08:43:43;11.20;99.90
11083;DHT22;5595;50.186;8.468;2023-04-25T08:46:11;11.30;99.90
11083;DHT22;5595;50.186;8.468;2023-04-25T08:48:40;11.00;99.90
11083;DHT22;5595;50.186;8.468;2023-04-25T08:51:10;11.00;99.90
11083;DHT22;5595;50.186;8.468;2023-04-25T08:53:42;11.10;99.90
11083;DHT22;5595;50.186;8.468;2023-04-25T08:56:10;11.30;99.90
11083;DHT22;5595;50.186;8.468;2023-04-25T08:58:40;11.30;99.90
11083;DHT22;5595;50.186;8.468;2023-04-25T09:01:08;11.10;99.90
11083;DHT22;5595;50.186;8.468;2023-04-25T09:03:35;11.10;99.90
11083;DHT22;5595;50.186;8.468;2023-04-25T09:06:04;11.00;99.90
11083;DHT22;5595;50.186;8.468;2023-04-25T09:08:31;10.90;99.90
11083;DHT22;5595;50.186;8.468;2023-04-25T09:10:57;11.00;99.90
11083;DHT22;5595;50.186;8.468;2023-04-25T09:13:26;11.20;99.90
11083;DHT22;5595;50.186;8.468;2023-04-25T09:15:55;11.20;99.90
11083;DHT22;5595;50.186;8.468;2023-04-25T09:18:23;11.30;99.90
11083;DHT22;5595;50.186;8.468;2023-04-25T09:20:51;11.10;99.90
11083;DHT22;5595;50.186;8.468;2023-04-25T09:23:20;11.10;99.90
11083;DHT22;5595;50.186;8.468;2023-04-25T09:25:48;11.10;99.90
11083;DHT22;5595;50.186;8.468;2023-04-25T09:28:16;11.10;99.90
11083;DHT22;5595;50.186;8.468;2023-04-25T09:30:46;11.10;99.90
11083;DHT22;5595;50.186;8.468;2023-04-25T09:33:12;11.20;99.90
11083;DHT22;5595;50.186;8.468;2023-04-25T09:35:42;11.10;99.90
11083;DHT22;5595;50.186;8.468;2023-04-25T09:38:10;11.40;99.90
11083;DHT22;5595;50.186;8.468;2023-04-25T09:40:42;11.60;99.90
11083;DHT22;5595;50.186;8.468;2023-04-25T09:43:09;11.70;99.90
11083;DHT22;5595;50.186;8.468;2023-04-25T09:45:43;11.70;99.90
11083;DHT22;5595;50.186;8.468;2023-04-25T09:48:17;11.70;99.90
11083;DHT22;5595;50.186;8.468;2023-04-25T09:50:44;11.80;99.90
11083;DHT22;5595;50.186;8.468;2023-04-25T09:53:12;12.00;99.90
11083;DHT22;5595;50.186;8.468;2023-04-25T09:55:41;12.20;99.90
11083;DHT22;5595;50.186;8.468;2023-04-25T09:58:10;12.30;99.90
11083;DHT22;5595;50.186;8.468;2023-04-25T10:00:38;12.30;99.90
11083;DHT22;5595;50.186;8.468;2023-04-25T10:03:05;12.20;99.90
11083;DHT22;5595;50.186;8.468;2023-04-25T10:05:34;12.30;99.90
11083;DHT22;5595;50.186;8.468;2023-04-25T10:08:03;12.50;99.90
11083;DHT22;5595;50.186;8.468;2023-04-25T10:10:30;12.50;99.90
11083;DHT22;5595;50.186;8.468;2023-04-25T10:13:03;12.60;99.90
11083;DHT22;5595;50.186;8.468;2023-04-25T10:15:34;12.70;99.90
11083;DHT22;5595;50.186;8.468;2023-04-25T10:18:02;12.70;99.90
11083;DHT22;5595;50.186;8.468;2023-04-25T10:20:29;12.30;99.90
11083;DHT22;5595;50.186;8.468;2023-04-25T10:23:03;12.10;99.90
11083;DHT22;5595;50.186;8.468;2023-04-25T10:25:31;12.00;99.90
11083;DHT22;5595;50.186;8.468;2023-04-25T10:27:59;11.90;99.90
11083;DHT22;5595;50.186;8.468;2023-04-25T10:30:28;11.80;99.90
11083;DHT22;5595;50.186;8.468;2023-04-25T10:32:55;11.70;99.90
11083;DHT22;5595;50.186;8.468;2023-04-25T10:35:25;11.80;99.90
11083;DHT22;5595;50.186;8.468;2023-04-25T10:38:00;12.00;99.90
11083;DHT22;5595;50.186;8.468;2023-04-25T10:40:29;12.00;99.90
11083;DHT22;5595;50.186;8.468;2023-04-25T10:46:00;11.80;99.90
11083;DHT22;5595;50.186;8.468;2023-04-25T10:48:28;11.60;99.90
11083;DHT22;5595;50.186;8.468;2023-04-25T10:51:07;11.40;99.90
11083;DHT22;5595;50.186;8.468;2023-04-25T10:53:35;11.10;99.90
11083;DHT22;5595;50.186;8.468;2023-04-25T10:56:10;10.90;99.90
11083;DHT22;5595;50.186;8.468;2023-04-25T10:58:42;10.90;99.90
11083;DHT22;5595;50.186;8.468;2023-04-25T11:01:11;11.00;99.90
11083;DHT22;5595;50.186;8.468;2023-04-25T11:03:40;10.70;99.90
11083;DHT22;5595;50.186;8.468;2023-04-25T11:06:15;10.80;99.90
11083;DHT22;5595;50.186;8.468;2023-04-25T11:08:48;10.90;99.90
11083;DHT22;5595;50.186;8.468;2023-04-25T11:11:16;11.10;99.90
11083;DHT22;5595;50.186;8.468;2023-04-25T11:13:43;11.10;99.90
11083;DHT22;5595;50.186;8.468;2023-04-25T11:16:11;11.10;99.90
11083;DHT22;5595;50.186;8.468;2023-04-25T11:18:41;11.20;99.90
11083;DHT22;5595;50.186;8.468;2023-04-25T11:21:08;11.30;99.90
11083;DHT22;5595;50.186;8.468;2023-04-25T11:23:35;11.60;99.90
11083;DHT22;5595;50.186;8.468;2023-04-25T11:26:02;12.00;99.90
11083;DHT22;5595;50.186;8.468;2023-04-25T11:28:29;12.40;99.90
11083;DHT22;5595;50.186;8.468;2023-04-25T11:30:56;12.40;99.90
11083;DHT22;5595;50.186;8.468;2023-04-25T11:33:25;12.40;99.90
11083;DHT22;5595;50.186;8.468;2023-04-25T11:35:53;12.50;99.90
11083;DHT22;5595;50.186;8.468;2023-04-25T11:38:21;12.50;99.90
11083;DHT22;5595;50.186;8.468;2023-04-25T11:40:50;12.70;99.90
11083;DHT22;5595;50.186;8.468;2023-04-25T11:43:18;13.10;99.90
11083;DHT22;5595;50.186;8.468;2023-04-25T11:45:47;13.40;99.90
11083;DHT22;5595;50.186;8.468;2023-04-25T11:48:14;13.40;99.90
11083;DHT22;5595;50.186;8.468;2023-04-25T11:50:43;13.30;99.90
11083;DHT22;5595;50.186;8.468;2023-04-25T11:53:10;13.20;99.90
11083;DHT22;5595;50.186;8.468;2023-04-25T11:55:37;13.30;99.90
11083;DHT22;5595;50.186;8.468;2023-04-25T11:58:04;13.20;99.90
11083;DHT22;5595;50.186;8.468;2023-04-25T12:00:32;12.80;99.90
11083;DHT22;5595;50.186;8.468;2023-04-25T12:02:59;12.50;99.90
11083;DHT22;5595;50.186;8.468;2023-04-25T12:05:27;12.30;99.90
11083;DHT22;5595;50.186;8.468;2023-04-25T12:07:56;12.20;99.90
11083;DHT22;5595;50.186;8.468;2023-04-25T12:10:24;11.90;99.90
11083;DHT22;5595;50.186;8.468;2023-04-25T12:12:51;11.80;99.90
11083;DHT22;5595;50.186;8.468;2023-04-25T12:15:23;11.50;99.90
11083;DHT22;5595;50.186;8.468;2023-04-25T12:17:54;11.20;99.90
11083;DHT22;5595;50.186;8.468;2023-04-25T12:20:25;11.10;99.90
11083;DHT22;5595;50.186;8.468;2023-04-25T12:22:52;11.10;99.90
11083;DHT22;5595;50.186;8.468;2023-04-25T12:25:39;11.00;99.90
11083;DHT22;5595;50.186;8.468;2023-04-25T12:28:11;11.30;99.90
11083;DHT22;5595;50.186;8.468;2023-04-25T12:30:53;11.60;99.90
11083;DHT22;5595;50.186;8.468;2023-04-25T12:33:20;12.00;99.90
11083;DHT22;5595;50.186;8.468;2023-04-25T12:35:50;12.40;99.90
11083;DHT22;5595;50.186;8.468;2023-04-25T12:38:24;12.50;99.90
11083;DHT22;5595;50.186;8.468;2023-04-25T12:40:53;12.50;99.90
11083;DHT22;5595;50.186;8.468;2023-04-25T12:43:21;12.60;99.90
11083;DHT22;5595;50.186;8.468;2023-04-25T12:45:48;12.70;99.90
11083;DHT22;5595;50.186;8.468;2023-04-25T12:48:16;12.60;99.90
11083;DHT22;5595;50.186;8.468;2023-04-25T12:50:43;12.50;99.90
11083;DHT22;5595;50.186;8.468;2023-04-25T12:53:11;12.40;99.60
11083;DHT22;5595;50.186;8.468;2023-04-25T12:55:38;12.40;99.80
11083;DHT22;5595;50.186;8.468;2023-04-25T12:58:06;12.60;99.90
11083;DHT22;5595;50.186;8.468;2023-04-25T13:00:33;12.80;99.90
11083;DHT22;5595;50.186;8.468;2023-04-25T13:03:00;13.00;99.90
11083;DHT22;5595;50.186;8.468;2023-04-25T13:05:27;13.30;99.90
11083;DHT22;5595;50.186;8.468;2023-04-25T13:07:55;13.30;99.70
11083;DHT22;5595;50.186;8.468;2023-04-25T13:10:22;13.20;98.90
11083;DHT22;5595;50.186;8.468;2023-04-25T13:12:52;13.30;98.90
11083;DHT22;5595;50.186;8.468;2023-04-25T13:15:20;13.20;98.80
11083;DHT22;5595;50.186;8.468;2023-04-25T13:17:47;13.20;98.00
11083;DHT22;5595;50.186;8.468;2023-04-25T13:20:14;13.00;97.60
11083;DHT22;5595;50.186;8.468;2023-04-25T13:22:42;13.00;98.30
11083;DHT22;5595;50.186;8.468;2023-04-25T13:25:11;13.30;97.50
11083;DHT22;5595;50.186;8.468;2023-04-25T13:27:38;13.40;98.00
11083;DHT22;5595;50.186;8.468;2023-04-25T13:30:07;13.60;98.20
11083;DHT22;5595;50.186;8.468;2023-04-25T13:32:36;13.50;97.30
11083;DHT22;5595;50.186;8.468;2023-04-25T13:35:04;13.30;96.40
11083;DHT22;5595;50.186;8.468;2023-04-25T13:37:31;13.10;96.10
11083;DHT22;5595;50.186;8.468;2023-04-25T13:39:59;13.10;96.80
11083;DHT22;5595;50.186;8.468;2023-04-25T13:42:26;13.10;96.70
11083;DHT22;5595;50.186;8.468;2023-04-25T13:44:53;13.00;95.70
11083;DHT22;5595;50.186;8.468;2023-04-25T13:47:20;12.90;95.60
11083;DHT22;5595;50.186;8.468;2023-04-25T13:49:49;12.90;96.10
11083;DHT22;5595;50.186;8.468;2023-04-25T13:52:16;12.90;96.20
11083;DHT22;5595;50.186;8.468;2023-04-25T13:54:43;13.00;95.90
11083;DHT22;5595;50.186;8.468;2023-04-25T13:57:10;13.00;95.10
11083;DHT22;5595;50.186;8.468;2023-04-25T13:59:37;12.90;94.90
11083;DHT22;5595;50.186;8.468;2023-04-25T14:02:04;12.90;94.50
11083;DHT22;5595;50.186;8.468;2023-04-25T14:04:31;12.60;93.80
11083;DHT22;5595;50.186;8.468;2023-04-25T14:07:00;12.50;93.60
11083;DHT22;5595;50.186;8.468;2023-04-25T14:09:27;12.40;93.00
11083;DHT22;5595;50.186;8.468;2023-04-25T14:11:57;12.20;92.70
11083;DHT22;5595;50.186;8.468;2023-04-25T14:14:24;12.10;92.70
11083;DHT22;5595;50.186;8.468;2023-04-25T14:16:51;11.90;93.00
11083;DHT22;5595;50.186;8.468;2023-04-25T14:19:20;11.90;93.90
11083;DHT22;5595;50.186;8.468;2023-04-25T14:21:47;12.10;94.30
11083;DHT22;5595;50.186;8.468;2023-04-25T14:24:15;12.00;94.20
11083;DHT22;5595;50.186;8.468;2023-04-25T14:26:43;12.00;94.40
11083;DHT22;5595;50.186;8.468;2023-04-25T14:29:10;12.20;94.70
11083;DHT22;5595;50.186;8.468;2023-04-25T14:31:38;12.30;95.10
11083;DHT22;5595;50.186;8.468;2023-04-25T14:34:06;12.50;95.20
11083;DHT22;5595;50.186;8.468;2023-04-25T14:36:34;12.80;95.10
11083;DHT22;5595;50.186;8.468;2023-04-25T14:39:00;13.00;95.40
11083;DHT22;5595;50.186;8.468;2023-04-25T14:41:29;13.00;95.00
11083;DHT22;5595;50.186;8.468;2023-04-25T14:43:56;13.00;94.70
11083;DHT22;5595;50.186;8.468;2023-04-25T14:46:23;12.70;94.00
11083;DHT22;5595;50.186;8.468;2023-04-25T14:48:51;12.50;94.10
11083;DHT22;5595;50.186;8.468;2023-04-25T14:51:18;12.60;94.90
11083;DHT22;5595;50.186;8.468;2023-04-25T14:53:45;12.90;95.20
11083;DHT22;5595;50.186;8.468;2023-04-25T14:56:11;13.00;95.60
11083;DHT22;5595;50.186;8.468;2023-04-25T14:58:40;13.10;94.70
11083;DHT22;5595;50.186;8.468;2023-04-25T15:01:07;13.00;94.40
11083;DHT22;5595;50.186;8.468;2023-04-25T15:03:34;12.70;94.50
11083;DHT22;5595;50.186;8.468;2023-04-25T15:06:01;12.80;95.00
11083;DHT22;5595;50.186;8.468;2023-04-25T15:08:28;13.00;95.00
11083;DHT22;5595;50.186;8.468;2023-04-25T15:10:55;13.00;94.30
11083;DHT22;5595;50.186;8.468;2023-04-25T15:13:22;12.60;94.00
11083;DHT22;5595;50.186;8.468;2023-04-25T15:15:51;12.20;94.50
11083;DHT22;5595;50.186;8.468;2023-04-25T15:18:20;12.10;95.00
11083;DHT22;5595;50.186;8.468;2023-04-25T15:20:49;12.00;95.20
11083;DHT22;5595;50.186;8.468;2023-04-25T15:23:17;11.80;93.90
11083;DHT22;5595;50.186;8.468;2023-04-25T15:25:44;11.60;93.70
11083;DHT22;5595;50.186;8.468;2023-04-25T15:28:11;11.60;94.20
11083;DHT22;5595;50.186;8.468;2023-04-25T15:30:40;11.50;94.50
11083;DHT22;5595;50.186;8.468;2023-04-25T15:33:08;11.50;94.00
11083;DHT22;5595;50.186;8.468;2023-04-25T15:35:35;11.30;93.70
11083;DHT22;5595;50.186;8.468;2023-04-25T15:38:03;11.20;92.80
11083;DHT22;5595;50.186;8.468;2023-04-25T15:40:30;10.90;93.20
11083;DHT22;5595;50.186;8.468;2023-04-25T15:42:57;10.90;93.60
11083;DHT22;5595;50.186;8.468;2023-04-25T15:45:27;11.00;93.20
11083;DHT22;5595;50.186;8.468;2023-04-25T15:47:55;10.80;93.00
11083;DHT22;5595;50.186;8.468;2023-04-25T15:50:24;10.70;93.10
11083;DHT22;5595;50.186;8.468;2023-04-25T15:52:51;10.60;93.30
11083;DHT22;5595;50.186;8.468;2023-04-25T15:55:19;10.50;93.80
11083;DHT22;5595;50.186;8.468;2023-04-25T15:57:48;10.50;93.50
11083;DHT22;5595;50.186;8.468;2023-04-25T16:00:16;10.30;93.70